createdAt,value
2023-05-11T00:02:21.958Z,98938.75
2023-05-11T00:04:48.730Z,98917.38
2023-05-11T00:07:15.633Z,98932.00
2023-05-11T00:09:42.408Z,98929.78
2023-05-11T00:12:09.148Z,98916.31
2023-05-11T00:14:35.980Z,98930.16
2023-05-11T00:17:02.700Z,98913.50
2023-05-11T00:19:31.711Z,98927.78
2023-05-11T00:21:59.361Z,98908.75
2023-05-11T00:24:26.481Z,98935.34
2023-05-11T00:26:53.445Z,98922.50
2023-05-11T00:29:20.196Z,98928.56
2023-05-11T00:31:48.319Z,98931.25
2023-05-11T00:34:17.708Z,98923.53
2023-05-11T00:36:45.554Z,98931.56
2023-05-11T00:39:12.737Z,98931.41
2023-05-11T00:41:39.646Z,98909.00
2023-05-11T00:44:06.855Z,98932.78
2023-05-11T00:46:33.753Z,98924.16
2023-05-11T00:49:00.614Z,98928.88
2023-05-11T00:51:28.065Z,98917.41
2023-05-11T00:53:54.820Z,98914.91
2023-05-11T00:56:22.085Z,98905.31
2023-05-11T00:58:49.097Z,98922.81
2023-05-11T01:01:18.063Z,98922.28
2023-05-11T01:03:46.347Z,98907.91
2023-05-11T01:06:44.692Z,98918.94
2023-05-11T01:09:47.025Z,98911.38
2023-05-11T01:12:33.866Z,98922.09
2023-05-11T01:15:28.606Z,98922.72
2023-05-11T01:18:11.897Z,98932.69
2023-05-11T01:20:40.082Z,98889.56
2023-05-11T01:23:28.581Z,98930.16
2023-05-11T01:26:04.486Z,98936.91
2023-05-11T01:29:06.602Z,98922.25
2023-05-11T01:31:34.869Z,98925.78
2023-05-11T01:34:05.432Z,98936.44
2023-05-11T01:36:39.242Z,98925.34
2023-05-11T01:39:10.132Z,98919.09
2023-05-11T01:41:40.456Z,98933.06
2023-05-11T01:44:10.684Z,98927.53
2023-05-11T01:46:38.740Z,98910.69
2023-05-11T01:49:10.036Z,98918.75
2023-05-11T01:51:38.568Z,98929.69
2023-05-11T01:54:08.810Z,98935.75
2023-05-11T01:56:37.453Z,98917.03
2023-05-11T01:59:05.168Z,98928.16
2023-05-11T02:01:35.864Z,98919.88
2023-05-11T02:04:05.040Z,98940.28
2023-05-11T02:06:34.531Z,98938.06
2023-05-11T02:09:03.365Z,98933.84
2023-05-11T02:11:31.243Z,98938.44
2023-05-11T02:13:59.373Z,98918.56
2023-05-11T02:16:28.529Z,98918.94
2023-05-11T02:18:57.436Z,98906.13
2023-05-11T02:21:26.573Z,98919.56
2023-05-11T02:23:54.477Z,98921.78
2023-05-11T02:26:22.018Z,98920.25
2023-05-11T02:28:48.742Z,98920.78
2023-05-11T02:31:27.802Z,98907.47
2023-05-11T02:33:59.806Z,98898.00
2023-05-11T02:36:29.732Z,98878.28
2023-05-11T02:39:01.725Z,98918.41
2023-05-11T02:41:30.784Z,98901.06
2023-05-11T02:44:03.036Z,98902.91
2023-05-11T02:46:35.666Z,98896.47
2023-05-11T02:49:05.922Z,98909.56
2023-05-11T02:51:41.422Z,98901.84
2023-05-11T02:54:12.546Z,98911.94
2023-05-11T02:56:39.591Z,98917.16
2023-05-11T02:59:06.547Z,98910.94
2023-05-11T03:01:34.104Z,98896.09
2023-05-11T03:04:04.882Z,98916.88
2023-05-11T03:06:32.360Z,98894.69
2023-05-11T03:08:59.706Z,98897.69
2023-05-11T03:11:26.738Z,98896.25
2023-05-11T03:13:53.816Z,98908.16
2023-05-11T03:16:21.702Z,98893.69
2023-05-11T03:18:49.930Z,98906.44
2023-05-11T03:21:21.505Z,98874.75
2023-05-11T03:23:49.532Z,98903.38
2023-05-11T03:26:18.886Z,98921.31
2023-05-11T03:28:47.193Z,98919.81
2023-05-11T03:31:14.109Z,98903.47
2023-05-11T03:33:40.922Z,98911.53
2023-05-11T03:36:10.745Z,98933.22
2023-05-11T03:38:39.180Z,98919.56
2023-05-11T03:41:06.050Z,98917.19
2023-05-11T03:43:35.999Z,98923.22
2023-05-11T03:46:04.018Z,98940.56
2023-05-11T03:48:32.418Z,98934.97
2023-05-11T03:50:59.481Z,98918.53
2023-05-11T03:53:26.673Z,98935.34
2023-05-11T03:55:53.486Z,98948.31
2023-05-11T03:58:20.524Z,98951.16
2023-05-11T04:00:47.299Z,98949.25
2023-05-11T04:03:14.393Z,98960.06
2023-05-11T04:05:41.514Z,98951.00
2023-05-11T04:08:08.466Z,98953.53
2023-05-11T04:10:35.196Z,98933.59
2023-05-11T04:13:01.954Z,98948.25
2023-05-11T04:15:28.833Z,98966.97
2023-05-11T04:17:56.000Z,98964.13
2023-05-11T04:20:22.803Z,98970.72
2023-05-11T04:22:49.604Z,98959.63
2023-05-11T04:25:16.714Z,98949.72
2023-05-11T04:27:43.413Z,98939.78
2023-05-11T04:30:10.477Z,98951.88
2023-05-11T04:32:37.273Z,98955.25
2023-05-11T04:35:04.326Z,98948.88
2023-05-11T04:37:31.802Z,98944.81
2023-05-11T04:39:58.555Z,98966.09
2023-05-11T04:42:25.357Z,98951.00
2023-05-11T04:44:55.129Z,98945.59
2023-05-11T04:47:21.976Z,98957.22
2023-05-11T04:49:48.631Z,98954.84
2023-05-11T04:52:15.498Z,98935.69
2023-05-11T04:54:42.501Z,98951.34
2023-05-11T04:57:09.251Z,98916.81
2023-05-11T04:59:36.120Z,98937.91
2023-05-11T05:02:02.977Z,98950.69
2023-05-11T05:04:29.805Z,98952.22
2023-05-11T05:06:56.578Z,98951.38
2023-05-11T05:09:23.330Z,98934.09
2023-05-11T05:11:50.125Z,98945.34
2023-05-11T05:14:16.878Z,98938.28
2023-05-11T05:16:43.643Z,98921.47
2023-05-11T05:19:12.891Z,98932.22
2023-05-11T05:21:40.840Z,98931.41
2023-05-11T05:24:11.226Z,98912.22
2023-05-11T05:26:38.238Z,98918.63
2023-05-11T05:29:06.658Z,98907.19
2023-05-11T05:31:33.539Z,98911.50
2023-05-11T05:34:00.342Z,98900.53
2023-05-11T05:36:27.137Z,98900.22
2023-05-11T05:38:53.940Z,98903.09
2023-05-11T05:41:23.216Z,98888.94
2023-05-11T05:43:51.661Z,98904.91
2023-05-11T05:46:18.678Z,98893.03
2023-05-11T05:48:45.445Z,98894.03
2023-05-11T05:51:12.188Z,98894.16
2023-05-11T05:53:39.051Z,98907.41
2023-05-11T05:56:06.231Z,98894.28
2023-05-11T05:58:32.944Z,98897.53
2023-05-11T06:01:01.020Z,98893.41
2023-05-11T06:03:29.361Z,98910.75
2023-05-11T06:05:56.610Z,98909.53
2023-05-11T06:08:23.335Z,98911.28
2023-05-11T06:10:49.983Z,98895.13
2023-05-11T06:13:16.899Z,98912.97
2023-05-11T06:15:44.018Z,98911.28
2023-05-11T06:18:11.028Z,98909.59
2023-05-11T06:20:37.787Z,98900.34
2023-05-11T06:23:04.552Z,98919.69
2023-05-11T06:25:35.343Z,98926.53
2023-05-11T06:28:02.239Z,98916.38
2023-05-11T06:30:29.720Z,98922.72
2023-05-11T06:32:56.433Z,98913.41
2023-05-11T06:35:23.261Z,98916.38
2023-05-11T06:37:49.966Z,98909.59
2023-05-11T06:40:16.889Z,98906.94
2023-05-11T06:42:44.005Z,98913.78
2023-05-11T06:45:11.174Z,98905.78
2023-05-11T06:47:38.007Z,98905.03
2023-05-11T06:50:05.337Z,98906.91
2023-05-11T06:52:32.147Z,98915.31
2023-05-11T06:54:58.837Z,98882.13
2023-05-11T06:57:25.540Z,98896.59
2023-05-11T06:59:52.314Z,98892.75
2023-05-11T07:02:19.021Z,98890.91
2023-05-11T07:04:45.808Z,98900.75
2023-05-11T07:07:13.167Z,98892.84
2023-05-11T07:09:42.024Z,98890.91
2023-05-11T07:12:08.911Z,98893.41
2023-05-11T07:14:35.644Z,98884.38
2023-05-11T07:17:02.411Z,98877.47
2023-05-11T07:19:30.096Z,98876.03
2023-05-11T07:21:56.825Z,98883.28
2023-05-11T07:24:23.616Z,98882.75
2023-05-11T07:26:51.085Z,98878.88
2023-05-11T07:29:17.828Z,98863.34
2023-05-11T07:31:45.414Z,98876.63
2023-05-11T07:34:12.184Z,98861.78
2023-05-11T07:36:38.978Z,98865.34
2023-05-11T07:39:05.956Z,98869.66
2023-05-11T07:41:32.695Z,98853.25
2023-05-11T07:44:01.240Z,98854.75
2023-05-11T07:46:28.290Z,98845.53
2023-05-11T07:49:07.250Z,98853.28
2023-05-11T07:51:42.087Z,98847.81
2023-05-11T07:54:08.963Z,98844.31
2023-05-11T07:56:35.751Z,98846.53
2023-05-11T07:59:02.681Z,98835.09
2023-05-11T08:01:29.484Z,98842.28
2023-05-11T08:03:56.326Z,98831.75
2023-05-11T08:06:23.056Z,98844.72
2023-05-11T08:08:49.785Z,98833.69
2023-05-11T08:11:16.567Z,98835.34
2023-05-11T08:13:43.230Z,98845.03
2023-05-11T08:16:10.063Z,98825.63
2023-05-11T08:18:37.313Z,98822.31
2023-05-11T08:21:04.336Z,98826.31
2023-05-11T08:23:31.786Z,98823.53
2023-05-11T08:25:58.552Z,98808.81
2023-05-11T08:28:25.694Z,98821.19
2023-05-11T08:30:59.452Z,98792.91
2023-05-11T08:33:37.407Z,98817.06
2023-05-11T08:36:06.405Z,98813.75
2023-05-11T08:38:33.648Z,98794.47
2023-05-11T08:41:01.965Z,98806.19
2023-05-11T08:43:30.490Z,98809.53
2023-05-11T08:46:02.918Z,98813.28
2023-05-11T08:48:30.963Z,98812.25
2023-05-11T08:50:59.373Z,98805.19
2023-05-11T08:53:26.142Z,98797.63
2023-05-11T08:55:55.487Z,98810.56
2023-05-11T08:58:22.961Z,98803.91
2023-05-11T09:00:50.258Z,98816.66
2023-05-11T09:03:20.210Z,98811.66
2023-05-11T09:05:47.843Z,98802.25
2023-05-11T09:08:17.600Z,98796.16
2023-05-11T09:10:44.459Z,98806.16
2023-05-11T09:13:11.625Z,98803.03
2023-05-11T09:15:38.534Z,98801.81
2023-05-11T09:18:05.827Z,98792.63
2023-05-11T09:20:34.033Z,98810.56
2023-05-11T09:23:01.435Z,98785.47
2023-05-11T09:25:33.248Z,98797.53
2023-05-11T09:28:00.720Z,98778.91
2023-05-11T09:30:27.792Z,98771.53
2023-05-11T09:33:02.660Z,98759.78
2023-05-11T09:35:32.034Z,98802.19
2023-05-11T09:38:05.135Z,98793.41
2023-05-11T09:40:34.913Z,98801.56
2023-05-11T09:43:21.606Z,98801.38
2023-05-11T09:45:50.202Z,98794.06
2023-05-11T09:48:17.090Z,98798.91
2023-05-11T09:50:44.194Z,98795.72
2023-05-11T09:53:11.215Z,98802.19
2023-05-11T09:55:38.279Z,98799.31
2023-05-11T09:58:05.006Z,98793.66
2023-05-11T10:00:32.344Z,98798.91
2023-05-11T10:03:07.839Z,98795.72
2023-05-11T10:05:36.198Z,98797.81
2023-05-11T10:08:05.170Z,98796.19
2023-05-11T10:10:35.347Z,98796.56
2023-05-11T10:13:03.337Z,98783.41
2023-05-11T10:15:32.504Z,98800.16
2023-05-11T10:18:01.372Z,98795.72
2023-05-11T10:20:28.320Z,98790.69
2023-05-11T10:22:56.313Z,98795.75
2023-05-11T10:25:25.036Z,98782.97
2023-05-11T10:27:52.304Z,98791.31
2023-05-11T10:30:19.895Z,98795.50
2023-05-11T10:32:47.431Z,98794.78
2023-05-11T10:35:14.465Z,98802.41
2023-05-11T10:37:43.120Z,98799.97
2023-05-11T10:40:10.950Z,98794.88
2023-05-11T10:42:43.662Z,98800.78
2023-05-11T10:45:41.114Z,98807.47
2023-05-11T10:48:16.914Z,98803.94
2023-05-11T10:51:11.484Z,98813.84
2023-05-11T10:53:46.805Z,98805.06
2023-05-11T10:56:43.539Z,98811.19
2023-05-11T10:59:44.239Z,98805.38
2023-05-11T11:02:11.173Z,98785.16
2023-05-11T11:04:49.729Z,98798.56
2023-05-11T11:07:18.800Z,98801.47
2023-05-11T11:09:51.839Z,98808.22
2023-05-11T11:12:20.390Z,98806.94
2023-05-11T11:15:07.690Z,98785.41
2023-05-11T11:17:36.521Z,98802.38
2023-05-11T11:20:08.596Z,98792.81
2023-05-11T11:22:35.520Z,98802.28
2023-05-11T11:25:05.860Z,98794.91
2023-05-11T11:27:42.017Z,98803.41
2023-05-11T11:30:25.862Z,98799.09
2023-05-11T11:32:54.909Z,98781.44
2023-05-11T11:35:43.025Z,98800.09
2023-05-11T11:38:12.012Z,98793.69
2023-05-11T11:40:50.651Z,98791.53
2023-05-11T11:43:26.097Z,98802.09
2023-05-11T11:46:00.129Z,98779.38
2023-05-11T11:48:36.877Z,98800.69
2023-05-11T11:51:08.771Z,98797.91
2023-05-11T11:53:39.679Z,98802.66
2023-05-11T11:56:29.092Z,98767.06
2023-05-11T11:58:55.873Z,98798.69
2023-05-11T12:01:26.811Z,98793.88
2023-05-11T12:04:18.208Z,98763.34
2023-05-11T12:06:52.092Z,98785.22
2023-05-11T12:09:19.508Z,98794.13
2023-05-11T12:11:47.975Z,98788.91
2023-05-11T12:14:15.736Z,98792.88
2023-05-11T12:16:42.466Z,98790.59
2023-05-11T12:19:09.294Z,98791.22
2023-05-11T12:21:36.127Z,98788.75
2023-05-11T12:24:05.277Z,98775.09
2023-05-11T12:26:34.469Z,98785.47
2023-05-11T12:29:11.383Z,98788.88
2023-05-11T12:31:46.603Z,98789.56
2023-05-11T12:34:18.142Z,98774.75
2023-05-11T12:36:50.062Z,98780.78
2023-05-11T12:39:18.984Z,98782.75
2023-05-11T12:41:47.629Z,98771.97
2023-05-11T12:44:16.255Z,98776.03
2023-05-11T12:46:44.639Z,98768.31
2023-05-11T12:49:14.112Z,98763.91
2023-05-11T12:52:11.205Z,98774.75
2023-05-11T12:54:51.374Z,98769.72
2023-05-11T12:57:27.418Z,98761.66
2023-05-11T13:00:08.148Z,98758.47
2023-05-11T13:02:35.377Z,98766.41
2023-05-11T13:05:15.047Z,98759.09
2023-05-11T13:07:42.199Z,98760.34
2023-05-11T13:10:09.168Z,98747.78
2023-05-11T13:12:48.205Z,98757.00
2023-05-11T13:15:14.932Z,98753.97
2023-05-11T13:17:43.287Z,98744.63
2023-05-11T13:20:27.441Z,98754.78
2023-05-11T13:23:08.801Z,98755.59
2023-05-11T13:25:51.689Z,98749.38
2023-05-11T13:28:20.767Z,98750.22
2023-05-11T13:30:48.221Z,98741.31
2023-05-11T13:33:15.172Z,98745.16
2023-05-11T13:35:43.358Z,98717.31
2023-05-11T13:38:11.323Z,98742.94
2023-05-11T13:40:39.541Z,98737.53
2023-05-11T13:43:07.539Z,98726.28
2023-05-11T13:45:36.477Z,98732.69
2023-05-11T13:48:03.719Z,98742.94
2023-05-11T13:50:30.912Z,98723.69
2023-05-11T13:52:57.669Z,98726.25
2023-05-11T13:55:24.559Z,98734.22
2023-05-11T13:57:51.864Z,98739.47
2023-05-11T14:00:19.820Z,98738.13
2023-05-11T14:02:48.338Z,98698.91
2023-05-11T14:05:15.180Z,98741.00
2023-05-11T14:07:47.624Z,98730.84
2023-05-11T14:10:15.825Z,98729.97
2023-05-11T14:12:42.896Z,98733.34
2023-05-11T14:15:10.766Z,98732.94
2023-05-11T14:17:37.753Z,98736.63
2023-05-11T14:20:06.192Z,98736.78
2023-05-11T14:22:32.930Z,98730.38
2023-05-11T14:25:00.185Z,98723.72
2023-05-11T14:27:27.227Z,98737.91
2023-05-11T14:29:55.077Z,98732.03
2023-05-11T14:32:21.891Z,98728.03
2023-05-11T14:34:48.896Z,98737.22
2023-05-11T14:37:24.280Z,98719.84
2023-05-11T14:39:51.187Z,98677.50
2023-05-11T14:42:18.552Z,98732.88
2023-05-11T14:44:46.405Z,98739.97
2023-05-11T14:47:13.174Z,98746.94
2023-05-11T14:49:39.871Z,98733.91
2023-05-11T14:52:06.826Z,98726.34
2023-05-11T14:54:35.184Z,98740.75
2023-05-11T14:57:01.976Z,98704.19
2023-05-11T14:59:28.873Z,98723.03
2023-05-11T15:01:55.698Z,98732.25
2023-05-11T15:04:22.849Z,98729.22
2023-05-11T15:06:49.696Z,98738.28
2023-05-11T15:09:16.490Z,98701.44
2023-05-11T15:11:43.149Z,98721.75
2023-05-11T15:14:10.703Z,98729.41
2023-05-11T15:16:38.143Z,98706.06
2023-05-11T15:19:05.625Z,98733.59
2023-05-11T15:21:32.746Z,98748.09
2023-05-11T15:23:59.506Z,98736.97
2023-05-11T15:26:26.207Z,98733.38
2023-05-11T15:28:52.940Z,98710.38
2023-05-11T15:31:20.005Z,98740.97
2023-05-11T15:33:46.927Z,98751.25
2023-05-11T15:36:15.346Z,98744.19
2023-05-11T15:38:43.223Z,98751.34
2023-05-11T15:41:10.135Z,98721.78
2023-05-11T15:43:36.972Z,98743.34
2023-05-11T15:46:05.084Z,98739.69
2023-05-11T15:48:32.215Z,98737.94
2023-05-11T15:51:03.097Z,98741.97
2023-05-11T15:53:29.964Z,98721.63
2023-05-11T15:55:57.470Z,98737.22
2023-05-11T15:58:24.249Z,98745.97
2023-05-11T16:00:51.367Z,98743.16
2023-05-11T16:03:20.142Z,98713.66
2023-05-11T16:05:47.111Z,98744.66
2023-05-11T16:08:14.090Z,98752.97
2023-05-11T16:10:41.065Z,98727.81
2023-05-11T16:13:08.337Z,98715.63
2023-05-11T16:15:35.016Z,98765.16
2023-05-11T16:18:04.852Z,98762.28
2023-05-11T16:20:32.336Z,98766.38
2023-05-11T16:22:59.153Z,98772.06
2023-05-11T16:25:29.405Z,98764.69
2023-05-11T16:27:57.082Z,98774.84
2023-05-11T16:30:25.469Z,98764.75
2023-05-11T16:32:54.110Z,98768.00
2023-05-11T16:35:21.040Z,98764.75
2023-05-11T16:37:48.376Z,98764.81
2023-05-11T16:40:21.970Z,98770.25
2023-05-11T16:42:49.202Z,98775.69
2023-05-11T16:45:16.997Z,98766.31
2023-05-11T16:47:46.750Z,98764.19
2023-05-11T16:50:14.884Z,98766.84
2023-05-11T16:52:42.427Z,98771.69
2023-05-11T16:55:09.815Z,98768.75
2023-05-11T16:57:36.732Z,98770.59
2023-05-11T17:00:03.713Z,98782.16
2023-05-11T17:02:31.097Z,98774.50
2023-05-11T17:04:57.765Z,98781.03
2023-05-11T17:07:25.593Z,98788.78
2023-05-11T17:10:08.510Z,98779.47
2023-05-11T17:12:45.322Z,98767.31
2023-05-11T17:15:12.717Z,98781.91
2023-05-11T17:17:39.934Z,98781.88
2023-05-11T17:20:08.073Z,98770.16
2023-05-11T17:22:35.390Z,98785.78
2023-05-11T17:25:04.421Z,98780.13
2023-05-11T17:27:32.162Z,98799.63
2023-05-11T17:29:59.872Z,98790.19
2023-05-11T17:32:27.067Z,98786.59
2023-05-11T17:34:54.159Z,98797.34
2023-05-11T17:37:31.393Z,98803.19
2023-05-11T17:40:02.810Z,98811.44
2023-05-11T17:42:30.964Z,98800.91
2023-05-11T17:44:57.988Z,98815.72
2023-05-11T17:47:24.814Z,98811.00
2023-05-11T17:49:51.572Z,98810.16
2023-05-11T17:52:18.354Z,98814.59
2023-05-11T17:54:45.238Z,98819.94
2023-05-11T17:57:12.024Z,98831.72
2023-05-11T17:59:38.793Z,98830.25
2023-05-11T18:02:05.485Z,98840.66
2023-05-11T18:04:34.910Z,98822.00
2023-05-11T18:07:04.120Z,98821.50
2023-05-11T18:09:31.059Z,98785.50
2023-05-11T18:11:57.765Z,98844.88
2023-05-11T18:14:24.585Z,98832.44
2023-05-11T18:16:53.199Z,98838.31
2023-05-11T18:19:20.008Z,98843.91
2023-05-11T18:21:46.765Z,98835.31
2023-05-11T18:24:17.810Z,98861.88
2023-05-11T18:26:44.771Z,98861.88
2023-05-11T18:29:11.673Z,98868.28
2023-05-11T18:31:38.855Z,98869.13
2023-05-11T18:34:05.929Z,98870.47
2023-05-11T18:36:33.393Z,98878.22
2023-05-11T18:39:00.173Z,98870.78
2023-05-11T18:41:28.304Z,98876.00
2023-05-11T18:43:55.070Z,98875.69
2023-05-11T18:46:21.946Z,98874.31
2023-05-11T18:48:52.987Z,98874.31
2023-05-11T18:51:23.146Z,98882.06
2023-05-11T18:53:50.901Z,98894.50
2023-05-11T18:56:18.221Z,98887.41
2023-05-11T18:58:46.630Z,98904.28
2023-05-11T19:01:13.492Z,98885.94
2023-05-11T19:03:40.388Z,98890.94
2023-05-11T19:06:07.791Z,98910.47
2023-05-11T19:08:35.175Z,98912.16
2023-05-11T19:11:09.644Z,98906.25
2023-05-11T19:13:37.303Z,98916.19
2023-05-11T19:16:04.928Z,98900.19
2023-05-11T19:18:35.448Z,98917.53
2023-05-11T19:21:06.200Z,98919.72
2023-05-11T19:23:33.674Z,98931.00
2023-05-11T19:26:00.826Z,98930.97
2023-05-11T19:28:30.584Z,98920.03
2023-05-11T19:31:05.573Z,98926.28
2023-05-11T19:33:33.546Z,98933.16
2023-05-11T19:36:01.041Z,98926.75
2023-05-11T19:38:27.886Z,98936.50
2023-05-11T19:40:54.885Z,98933.47
2023-05-11T19:43:23.775Z,98928.72
2023-05-11T19:45:50.877Z,98929.97
2023-05-11T19:48:17.971Z,98901.31
2023-05-11T19:50:45.046Z,98930.59
2023-05-11T19:53:11.780Z,98930.31
2023-05-11T19:55:40.411Z,98925.59
2023-05-11T19:58:07.965Z,98940.91
2023-05-11T20:00:35.039Z,98919.13
2023-05-11T20:03:02.013Z,98941.50
2023-05-11T20:05:28.893Z,98947.41
2023-05-11T20:07:55.875Z,98943.34
2023-05-11T20:10:22.837Z,98942.16
2023-05-11T20:12:49.585Z,98941.84
2023-05-11T20:15:16.312Z,98949.56
2023-05-11T20:17:43.429Z,98947.88
2023-05-11T20:20:10.631Z,98947.34
2023-05-11T20:22:38.199Z,98959.63
2023-05-11T20:25:11.669Z,98947.50
2023-05-11T20:27:44.483Z,98950.34
2023-05-11T20:30:11.744Z,98949.66
2023-05-11T20:32:38.462Z,98939.78
2023-05-11T20:35:05.952Z,98934.44
2023-05-11T20:37:32.738Z,98946.06
2023-05-11T20:39:59.614Z,98928.31
2023-05-11T20:42:27.214Z,98957.56
2023-05-11T20:44:54.030Z,98944.09
2023-05-11T20:47:20.844Z,98961.94
2023-05-11T20:49:50.434Z,98962.28
2023-05-11T20:52:17.972Z,98960.94
2023-05-11T20:54:44.781Z,98926.44
2023-05-11T20:57:11.615Z,98933.97
2023-05-11T21:02:08.042Z,98938.91
2023-05-11T21:04:36.182Z,98934.50
2023-05-11T21:07:02.871Z,98944.09
2023-05-11T21:09:29.591Z,98946.56
2023-05-11T21:11:56.283Z,98948.25
2023-05-11T21:14:23.129Z,98960.00
2023-05-11T21:16:49.956Z,98955.44
2023-05-11T21:19:16.890Z,98952.09
2023-05-11T21:21:43.819Z,98946.56
2023-05-11T21:24:10.718Z,98950.88
2023-05-11T21:26:37.452Z,98953.94
2023-05-11T21:29:04.141Z,98927.53
2023-05-11T21:31:30.924Z,98968.75
2023-05-11T21:33:57.933Z,98958.78
2023-05-11T21:36:24.626Z,98952.72
2023-05-11T21:38:51.407Z,98959.38
2023-05-11T21:41:18.594Z,98941.97
2023-05-11T21:43:45.612Z,98973.09
2023-05-11T21:46:12.831Z,98971.25
2023-05-11T21:48:39.614Z,98962.38
2023-05-11T21:51:06.462Z,98964.75
2023-05-11T21:53:33.141Z,98962.69
2023-05-11T21:55:59.857Z,98956.56
2023-05-11T21:58:27.624Z,98959.91
2023-05-11T22:00:55.176Z,98962.69
2023-05-11T22:03:22.102Z,98947.50
2023-05-11T22:05:48.914Z,98958.47
2023-05-11T22:08:16.047Z,98953.88
2023-05-11T22:10:43.462Z,98969.84
2023-05-11T22:13:10.487Z,98958.94
2023-05-11T22:15:37.707Z,98968.91
2023-05-11T22:18:05.211Z,98967.03
2023-05-11T22:20:32.205Z,98957.47
2023-05-11T22:22:59.553Z,98951.34
2023-05-11T22:25:26.684Z,98954.25
2023-05-11T22:27:53.459Z,98956.41
2023-05-11T22:30:20.743Z,98971.28
2023-05-11T22:32:47.764Z,98960.50
2023-05-11T22:35:14.629Z,98956.28
2023-05-11T22:37:41.470Z,98958.31
2023-05-11T22:40:08.926Z,98931.63
2023-05-11T22:42:35.749Z,98962.31
2023-05-11T22:45:02.556Z,98974.91
2023-05-11T22:47:29.573Z,98966.94
2023-05-11T22:49:56.463Z,98963.78
2023-05-11T22:52:23.263Z,98980.69
2023-05-11T22:54:58.675Z,98959.06
2023-05-11T22:57:28.857Z,98974.69
2023-05-11T22:59:55.614Z,98992.81
2023-05-11T23:03:31.560Z,98989.78
2023-05-11T23:05:58.404Z,98986.25
2023-05-11T23:08:26.737Z,98993.88
2023-05-11T23:10:53.508Z,98980.69
2023-05-11T23:13:20.278Z,98973.16
2023-05-11T23:15:47.192Z,98964.47
2023-05-11T23:18:13.974Z,98967.69
2023-05-11T23:27:00.077Z,98944.22
2023-05-11T23:29:28.086Z,98949.81
2023-05-11T23:31:55.940Z,98952.66
2023-05-11T23:34:23.549Z,98954.34
2023-05-11T23:36:53.239Z,98951.50
2023-05-11T23:39:20.481Z,98938.00
2023-05-11T23:41:47.193Z,98940.28
2023-05-11T23:44:13.897Z,98914.19
2023-05-11T23:46:40.609Z,98920.84
2023-05-11T23:49:07.952Z,98932.69
2023-05-11T23:51:34.769Z,98933.75
2023-05-11T23:54:01.567Z,98911.34
2023-05-11T23:56:28.322Z,98927.94
2023-05-11T23:58:55.054Z,98931.06
